createdAt,value
2018-09-14T00:00:20.769Z,7.47
2018-09-14T00:02:49.631Z,2.70
2018-09-14T00:05:18.496Z,2.40
2018-09-14T00:07:47.458Z,2.40
2018-09-14T00:10:16.346Z,2.80
2018-09-14T00:12:45.744Z,2.20
2018-09-14T00:15:14.636Z,2.73
2018-09-14T00:17:43.483Z,2.50
2018-09-14T00:20:12.371Z,2.10
2018-09-14T00:22:41.231Z,2.70
2018-09-14T00:25:10.075Z,2.47
2018-09-14T00:27:38.978Z,2.20
2018-09-14T00:30:07.853Z,2.37
2018-09-14T00:32:36.717Z,2.10
2018-09-14T00:35:06.015Z,2.03
2018-09-14T00:37:35.044Z,2.03
2018-09-14T00:40:03.990Z,1.97
2018-09-14T00:42:32.915Z,2.40
2018-09-14T00:45:02.446Z,2.20
2018-09-14T00:47:31.880Z,2.33
2018-09-14T00:50:01.033Z,2.03
2018-09-14T00:52:29.976Z,2.37
2018-09-14T00:54:58.863Z,1.73
2018-09-14T00:57:27.740Z,2.27
2018-09-14T00:59:56.610Z,2.00
2018-09-14T01:02:25.479Z,2.20
2018-09-14T01:04:54.896Z,1.70
2018-09-14T01:07:24.931Z,1.57
2018-09-14T01:09:53.907Z,1.80
2018-09-14T01:12:22.989Z,1.70
2018-09-14T01:14:52.135Z,1.57
2018-09-14T01:17:21.049Z,1.70
2018-09-14T01:19:49.867Z,1.80
2018-09-14T01:22:18.835Z,1.57
2018-09-14T01:24:47.707Z,1.80
2018-09-14T01:27:16.830Z,1.40
2018-09-14T01:29:45.711Z,1.40
2018-09-14T01:32:14.588Z,1.20
2018-09-14T01:34:43.813Z,1.40
2018-09-14T01:37:12.912Z,1.80
2018-09-14T01:39:41.780Z,1.50
2018-09-14T01:42:10.671Z,1.63
2018-09-14T01:44:39.555Z,1.93
2018-09-14T01:47:08.429Z,2.00
2018-09-14T01:49:37.618Z,2.10
2018-09-14T01:52:06.524Z,2.03
2018-09-14T01:54:35.725Z,1.80
2018-09-14T01:57:04.601Z,1.67
2018-09-14T01:59:33.461Z,2.53
2018-09-14T02:02:02.355Z,2.33
2018-09-14T02:04:31.510Z,2.33
2018-09-14T02:07:00.363Z,1.80
2018-09-14T02:09:29.532Z,2.23
2018-09-14T02:11:58.687Z,2.03
2018-09-14T02:14:27.552Z,1.93
2018-09-14T02:16:56.432Z,1.80
2018-09-14T02:19:25.303Z,1.97
2018-09-14T02:21:54.171Z,2.20
2018-09-14T02:24:23.064Z,1.50
2018-09-14T02:26:52.306Z,1.90
2018-09-14T02:29:21.470Z,1.50
2018-09-14T02:31:50.339Z,2.00
2018-09-14T02:34:19.195Z,2.20
2018-09-14T02:36:48.425Z,2.10
2018-09-14T02:39:17.296Z,2.20
2018-09-14T02:41:46.451Z,2.00
2018-09-14T02:44:15.359Z,2.20
2018-09-14T02:46:44.958Z,1.90
2018-09-14T02:49:13.830Z,2.37
2018-09-14T02:51:42.717Z,2.13
2018-09-14T02:54:11.602Z,1.93
2018-09-14T02:56:40.780Z,2.57
2018-09-14T02:59:09.900Z,2.13
2018-09-14T03:01:38.832Z,2.10
2018-09-14T03:04:07.798Z,2.20
2018-09-14T03:06:37.113Z,2.13
2018-09-14T03:09:07.666Z,1.93
2018-09-14T03:11:36.537Z,1.83
2018-09-14T03:14:05.618Z,2.40
2018-09-14T03:16:34.551Z,1.90
2018-09-14T03:19:03.420Z,2.30
2018-09-14T03:21:32.627Z,2.23
2018-09-14T03:24:01.482Z,1.90
2018-09-14T03:26:30.363Z,1.90
2018-09-14T03:28:59.545Z,1.70
2018-09-14T03:31:28.395Z,1.90
2018-09-14T03:33:57.579Z,2.23
2018-09-14T03:36:26.466Z,2.57
2018-09-14T03:38:55.825Z,2.23
2018-09-14T03:41:24.683Z,2.10
2018-09-14T03:43:53.563Z,2.80
2018-09-14T03:46:22.432Z,2.90
2018-09-14T03:48:51.294Z,2.70
2018-09-14T03:51:20.162Z,2.07
2018-09-14T03:53:49.279Z,3.00
2018-09-14T03:56:18.148Z,3.30
2018-09-14T03:58:47.021Z,2.30
2018-09-14T04:01:15.881Z,2.63
2018-09-14T04:03:45.082Z,2.63
2018-09-14T04:06:13.979Z,2.83
2018-09-14T04:08:42.948Z,2.00
2018-09-14T04:11:11.841Z,3.17
2018-09-14T04:13:41.208Z,2.57
2018-09-14T04:16:10.435Z,3.00
2018-09-14T04:18:39.303Z,2.73
2018-09-14T04:21:08.398Z,3.20
2018-09-14T04:23:37.473Z,3.33
2018-09-14T04:26:06.284Z,3.27
2018-09-14T04:28:35.499Z,3.80
2018-09-14T04:31:04.372Z,4.17
2018-09-14T04:33:33.258Z,4.17
2018-09-14T04:36:02.202Z,3.23
2018-09-14T04:38:31.167Z,4.20
2018-09-14T04:41:00.262Z,2.97
2018-09-14T04:43:29.374Z,3.80
2018-09-14T04:45:58.652Z,3.17
2018-09-14T04:48:27.543Z,4.30
2018-09-14T04:50:56.734Z,4.50
2018-09-14T04:53:26.235Z,4.27
2018-09-14T04:55:55.116Z,3.10
2018-09-14T04:58:24.015Z,3.20
2018-09-14T05:00:52.914Z,3.00
2018-09-14T05:03:21.924Z,3.60
2018-09-14T05:05:50.853Z,3.60
2018-09-14T05:08:20.704Z,3.67
2018-09-14T05:10:50.110Z,4.10
2018-09-14T05:13:18.975Z,3.03
2018-09-14T05:15:47.848Z,3.90
2018-09-14T05:18:16.834Z,3.40
2018-09-14T05:20:45.760Z,4.60
2018-09-14T05:23:14.657Z,3.17
2018-09-14T05:25:43.598Z,3.30
2018-09-14T05:28:12.482Z,3.30
2018-09-14T05:30:41.587Z,3.40
2018-09-14T05:33:10.506Z,3.60
2018-09-14T05:35:39.373Z,3.87
2018-09-14T05:38:08.415Z,5.43
2018-09-14T05:40:37.704Z,4.30
2018-09-14T05:43:06.649Z,6.20
2018-09-14T05:45:35.698Z,5.23
2018-09-14T05:48:04.594Z,5.00
2018-09-14T05:50:33.506Z,5.93
2018-09-14T05:53:02.382Z,7.80
2018-09-14T05:55:31.299Z,6.27
2018-09-14T05:58:00.681Z,5.40
2018-09-14T06:00:30.087Z,5.33
2018-09-14T06:02:59.207Z,7.00
2018-09-14T06:05:28.080Z,4.37
2018-09-14T06:07:57.209Z,4.83
2018-09-14T06:10:26.101Z,5.20
2018-09-14T06:12:54.998Z,5.40
2018-09-14T06:15:23.873Z,4.87
2018-09-14T06:17:53.114Z,5.27
2018-09-14T06:20:22.015Z,5.00
2018-09-14T06:22:50.953Z,4.97
2018-09-14T06:25:19.847Z,4.70
2018-09-14T06:27:48.930Z,4.67
2018-09-14T06:30:17.890Z,4.67
2018-09-14T06:32:46.760Z,4.53
2018-09-14T06:35:15.870Z,3.93
2018-09-14T06:37:45.161Z,4.30
2018-09-14T06:40:16.510Z,4.67
2018-09-14T06:42:45.670Z,4.47
2018-09-14T06:45:14.589Z,4.37
2018-09-14T06:47:43.449Z,4.17
2018-09-14T06:50:12.710Z,4.30
2018-09-14T06:52:41.612Z,4.90
2018-09-14T06:55:10.665Z,4.80
2018-09-14T06:57:39.772Z,7.80
2018-09-14T07:00:09.128Z,9.23
2018-09-14T07:02:38.282Z,8.80
2018-09-14T07:05:07.309Z,8.57
2018-09-14T07:07:36.196Z,7.17
2018-09-14T07:10:05.125Z,7.10
2018-09-14T07:12:34.876Z,6.53
2018-09-14T07:15:03.756Z,6.50
2018-09-14T07:17:32.619Z,6.23
2018-09-14T07:20:01.513Z,5.80
2018-09-14T07:22:30.654Z,4.60
2018-09-14T07:24:59.541Z,3.90
2018-09-14T07:27:28.723Z,4.27
2018-09-14T07:29:57.663Z,3.67
2018-09-14T07:32:26.566Z,2.80
2018-09-14T07:34:55.669Z,3.47
2018-09-14T07:37:24.551Z,3.33
2018-09-14T07:39:53.428Z,2.90
2018-09-14T07:42:22.904Z,3.07
2018-09-14T07:44:52.059Z,5.20
2018-09-14T07:47:20.967Z,2.60
2018-09-14T07:49:49.856Z,5.13
2018-09-14T07:52:18.970Z,4.37
2018-09-14T07:54:47.864Z,2.87
2018-09-14T07:57:17.007Z,3.77
2018-09-14T07:59:45.899Z,2.70
2018-09-14T08:02:14.766Z,2.80
2018-09-14T08:04:44.118Z,3.30
2018-09-14T08:07:13.071Z,2.70
2018-09-14T08:09:41.987Z,2.50
2018-09-14T08:12:10.852Z,2.20
2018-09-14T08:14:39.734Z,3.70
2018-09-14T08:17:09.496Z,3.33
2018-09-14T08:19:38.894Z,3.30
2018-09-14T08:22:07.816Z,2.90
2018-09-14T08:24:36.910Z,3.90
2018-09-14T08:27:06.136Z,3.00
2018-09-14T08:29:35.057Z,2.23
2018-09-14T08:32:04.820Z,2.40
2018-09-14T08:34:34.070Z,3.63
2018-09-14T08:37:02.981Z,3.37
2018-09-14T08:39:31.875Z,5.80
2018-09-14T08:42:00.784Z,5.17
2018-09-14T08:44:29.672Z,6.23
2018-09-14T08:46:58.695Z,5.90
2018-09-14T08:49:27.662Z,6.03
2018-09-14T08:51:56.543Z,5.70
2018-09-14T08:54:27.177Z,6.30
2018-09-14T08:56:56.054Z,5.27
2018-09-14T08:59:24.946Z,5.40
2018-09-14T09:01:54.174Z,4.23
2018-09-14T09:04:23.336Z,4.07
2018-09-14T09:06:52.294Z,4.80
2018-09-14T09:09:21.151Z,4.90
2018-09-14T09:11:50.050Z,5.07
2018-09-14T09:14:18.941Z,5.10
2018-09-14T09:16:48.277Z,4.80
2018-09-14T09:19:17.197Z,3.67
2018-09-14T09:21:46.109Z,4.40
2018-09-14T09:24:15.051Z,3.40
2018-09-14T09:26:44.157Z,3.13
2018-09-14T09:29:13.178Z,3.50
2018-09-14T09:31:42.107Z,3.67
2018-09-14T09:34:10.967Z,3.50
2018-09-14T09:36:39.855Z,3.57
2018-09-14T09:39:10.443Z,3.20
2018-09-14T09:41:40.269Z,3.40
2018-09-14T09:44:09.349Z,2.90
2018-09-14T09:46:38.545Z,2.77
2018-09-14T09:49:07.959Z,3.13
2018-09-14T09:51:36.847Z,3.67
2018-09-14T09:54:07.145Z,3.00
2018-09-14T09:56:36.202Z,3.40
2018-09-14T09:59:05.123Z,3.40
2018-09-14T10:01:35.399Z,3.67
2018-09-14T10:04:09.756Z,3.23
2018-09-14T10:06:38.655Z,3.73
2018-09-14T10:09:10.515Z,4.00
2018-09-14T10:11:39.565Z,3.50
2018-09-14T10:14:08.445Z,3.40
2018-09-14T10:16:37.532Z,3.30
2018-09-14T10:19:06.910Z,2.83
2018-09-14T10:21:35.798Z,2.60
2018-09-14T10:24:04.727Z,2.70
2018-09-14T10:26:33.663Z,3.60
2018-09-14T10:29:02.560Z,3.20
2018-09-14T10:31:31.460Z,3.83
2018-09-14T10:34:00.668Z,3.60
2018-09-14T10:36:29.644Z,3.37
2018-09-14T10:38:58.558Z,3.33
2018-09-14T10:41:27.546Z,3.17
2018-09-14T10:43:56.526Z,3.23
2018-09-14T10:46:25.437Z,3.83
2018-09-14T10:48:54.727Z,3.10
2018-09-14T10:51:23.556Z,3.90
2018-09-14T10:53:52.619Z,4.30
2018-09-14T10:56:21.714Z,3.90
2018-09-14T10:58:50.694Z,4.20
2018-09-14T11:01:19.855Z,4.00
2018-09-14T11:03:49.487Z,4.63
2018-09-14T11:06:18.858Z,4.60
2018-09-14T11:08:47.706Z,4.10
2018-09-14T11:11:16.571Z,3.60
2018-09-14T11:13:45.551Z,4.57
2018-09-14T11:16:14.875Z,4.50
2018-09-14T11:18:43.931Z,4.13
2018-09-14T11:21:12.768Z,3.90
2018-09-14T11:23:41.695Z,4.47
2018-09-14T11:26:10.803Z,5.03
2018-09-14T11:28:39.666Z,4.10
2018-09-14T11:31:08.590Z,4.00
2018-09-14T11:33:37.969Z,3.83
2018-09-14T11:36:21.238Z,3.67
2018-09-14T11:38:50.761Z,4.33
2018-09-14T11:41:20.388Z,3.10
2018-09-14T11:43:51.161Z,2.93
2018-09-14T11:46:21.177Z,4.60
2018-09-14T11:48:50.944Z,4.70
2018-09-14T11:51:20.133Z,3.73
2018-09-14T11:53:49.075Z,4.73
2018-09-14T11:56:17.991Z,4.00
2018-09-14T11:58:46.945Z,4.20
2018-09-14T12:01:16.139Z,4.20
2018-09-14T12:03:44.999Z,4.80
2018-09-14T12:06:13.892Z,4.70
2018-09-14T12:08:43.306Z,4.70
2018-09-14T12:11:12.186Z,4.30
2018-09-14T12:13:41.455Z,4.10
2018-09-14T12:16:10.575Z,5.60
2018-09-14T12:18:41.807Z,4.40
2018-09-14T12:21:11.631Z,3.90
2018-09-14T12:23:42.298Z,4.60
2018-09-14T12:26:11.646Z,4.63
2018-09-14T12:28:40.534Z,4.57
2018-09-14T12:31:09.631Z,4.77
2018-09-14T12:33:38.786Z,4.13
2018-09-14T12:36:07.655Z,4.27
2018-09-14T12:38:38.230Z,4.00
2018-09-14T12:41:07.541Z,4.80
2018-09-14T12:43:36.569Z,4.17
2018-09-14T12:46:05.898Z,4.17
2018-09-14T12:48:34.925Z,3.60
2018-09-14T12:51:04.068Z,3.90
2018-09-14T12:53:32.940Z,3.53
2018-09-14T12:56:02.681Z,3.83
2018-09-14T12:58:31.908Z,3.80
2018-09-14T13:01:00.795Z,3.80
2018-09-14T13:03:29.934Z,3.87
2018-09-14T13:05:59.119Z,3.03
2018-09-14T13:08:27.986Z,2.87
2018-09-14T13:10:57.336Z,2.63
2018-09-14T13:13:26.534Z,2.53
2018-09-14T13:15:55.640Z,2.50
2018-09-14T13:18:24.559Z,3.27
2018-09-14T13:20:53.762Z,2.40
2018-09-14T13:23:22.813Z,2.20
2018-09-14T13:25:51.676Z,2.50
2018-09-14T13:28:20.603Z,2.30
2018-09-14T13:30:49.804Z,2.50
2018-09-14T13:33:18.689Z,3.40
2018-09-14T13:35:48.186Z,2.93
2018-09-14T13:38:17.105Z,2.80
2018-09-14T13:40:45.983Z,3.10
2018-09-14T13:43:14.843Z,3.80
2018-09-14T13:45:43.756Z,4.30
2018-09-14T13:48:12.618Z,3.60
2018-09-14T13:50:41.804Z,3.77
2018-09-14T13:53:10.687Z,3.30
2018-09-14T13:55:39.601Z,3.43
2018-09-14T13:58:08.525Z,3.60
2018-09-14T14:00:37.374Z,3.20
2018-09-14T14:03:06.855Z,2.50
2018-09-14T14:05:36.008Z,2.70
2018-09-14T14:08:04.916Z,2.90
2018-09-14T14:10:33.788Z,3.00
2018-09-14T14:13:02.647Z,2.60
2018-09-14T14:15:31.572Z,2.70
2018-09-14T14:18:00.687Z,2.40
2018-09-14T14:20:30.102Z,3.00
2018-09-14T14:22:59.418Z,2.60
2018-09-14T14:25:29.183Z,2.50
2018-09-14T14:27:58.194Z,2.20
2018-09-14T14:30:27.052Z,2.40
2018-09-14T14:32:56.263Z,2.00
2018-09-14T14:35:25.231Z,2.27
2018-09-14T14:37:54.119Z,2.20
2018-09-14T14:40:23.572Z,1.97
2018-09-14T14:42:52.887Z,1.83
2018-09-14T14:45:22.057Z,2.03
2018-09-14T14:47:56.105Z,2.23
2018-09-14T14:50:25.275Z,2.17
2018-09-14T14:52:54.187Z,2.00
2018-09-14T14:55:23.078Z,1.90
2018-09-14T14:57:51.956Z,1.80
2018-09-14T15:00:20.863Z,1.80
2018-09-14T15:02:50.015Z,1.87
2018-09-14T15:05:18.933Z,1.80
2018-09-14T15:07:48.135Z,1.80
2018-09-14T15:10:17.303Z,1.60
2018-09-14T15:12:46.794Z,2.17
2018-09-14T15:15:15.752Z,1.63
2018-09-14T15:17:44.894Z,1.80
2018-09-14T15:20:13.768Z,1.80
2018-09-14T15:22:42.921Z,2.03
2018-09-14T15:25:12.060Z,1.63
2018-09-14T15:27:40.932Z,1.33
2018-09-14T15:30:09.843Z,1.80
2018-09-14T15:32:38.826Z,1.60
2018-09-14T15:35:07.828Z,1.70
2018-09-14T15:37:37.079Z,1.60
2018-09-14T15:40:06.441Z,1.40
2018-09-14T15:42:35.351Z,1.90
2018-09-14T15:45:04.903Z,1.73
2018-09-14T15:47:34.431Z,1.50
2018-09-14T15:50:03.325Z,1.27
2018-09-14T15:52:32.621Z,1.60
2018-09-14T15:55:01.565Z,1.47
2018-09-14T15:57:30.445Z,1.63
2018-09-14T15:59:59.399Z,2.00
2018-09-14T16:02:28.250Z,1.90
2018-09-14T16:04:57.129Z,1.73
2018-09-14T16:07:26.319Z,1.77
2018-09-14T16:09:55.588Z,1.63
2018-09-14T16:12:24.717Z,1.40
2018-09-14T16:14:53.913Z,2.10
2018-09-14T16:17:22.812Z,1.70
2018-09-14T16:19:51.691Z,1.60
2018-09-14T16:22:20.573Z,1.70
2018-09-14T16:24:49.503Z,1.83
2018-09-14T16:27:18.728Z,2.10
2018-09-14T16:29:47.628Z,1.70
2018-09-14T16:32:16.822Z,2.23
2018-09-14T16:34:45.686Z,1.67
2018-09-14T16:37:14.602Z,1.53
2018-09-14T16:39:43.450Z,1.70
2018-09-14T16:42:12.354Z,1.63
2018-09-14T16:44:41.886Z,2.07
2018-09-14T16:47:11.179Z,1.77
2018-09-14T16:49:40.270Z,1.90
2018-09-14T16:52:09.177Z,1.70
2018-09-14T16:54:38.053Z,1.90
2018-09-14T16:57:06.914Z,2.00
2018-09-14T16:59:35.876Z,2.10
2018-09-14T17:02:04.814Z,2.10
2018-09-14T17:04:33.676Z,1.97
2018-09-14T17:07:02.562Z,2.10
2018-09-14T17:09:31.473Z,1.87
2018-09-14T17:12:00.621Z,1.70
2018-09-14T17:14:29.512Z,1.97
2018-09-14T17:16:58.403Z,1.93
2018-09-14T17:19:27.623Z,1.83
2018-09-14T17:21:56.543Z,2.00
2018-09-14T17:24:25.462Z,2.07
2018-09-14T17:26:54.322Z,2.10
2018-09-14T17:29:23.239Z,1.90
2018-09-14T17:31:52.455Z,2.40
2018-09-14T17:34:21.655Z,2.07
2018-09-14T17:36:50.850Z,2.37
2018-09-14T17:39:22.762Z,1.77
2018-09-14T17:41:51.915Z,2.10
2018-09-14T17:44:20.892Z,2.50
2018-09-14T17:46:49.839Z,2.60
2018-09-14T17:52:06.152Z,3.13
2018-09-14T17:54:35.772Z,2.60
2018-09-14T17:57:04.719Z,3.30
2018-09-14T17:59:33.813Z,2.83
2018-09-14T18:02:02.729Z,3.53
2018-09-14T18:04:31.976Z,3.60
2018-09-14T18:07:01.355Z,3.13
2018-09-14T18:09:30.538Z,3.17
2018-09-14T18:11:59.622Z,4.10
2018-09-14T18:14:28.595Z,3.27
2018-09-14T18:16:58.067Z,3.83
2018-09-14T18:19:26.972Z,3.73
2018-09-14T18:21:56.085Z,3.70
2018-09-14T18:24:25.002Z,4.00
2018-09-14T18:26:54.300Z,3.43
2018-09-14T18:29:23.184Z,3.73
2018-09-14T18:31:52.094Z,3.40
2018-09-14T18:34:20.995Z,3.40
2018-09-14T18:36:49.868Z,4.50
2018-09-14T18:39:19.019Z,4.07
2018-09-14T18:41:48.304Z,5.37
2018-09-14T18:44:17.193Z,5.80
2018-09-14T18:46:46.193Z,6.23
2018-09-14T18:49:22.404Z,5.60
2018-09-14T18:51:51.646Z,5.33
2018-09-14T18:54:20.854Z,4.83
2018-09-14T18:56:49.820Z,4.97
2018-09-14T18:59:18.914Z,4.73
2018-09-14T19:01:47.835Z,5.43
2018-09-14T19:04:16.829Z,4.83
2018-09-14T19:06:45.736Z,4.83
2018-09-14T19:09:14.885Z,4.40
2018-09-14T19:11:44.080Z,4.53
2018-09-14T19:14:13.934Z,5.20
2018-09-14T19:16:43.007Z,4.33
2018-09-14T19:19:18.476Z,4.23
2018-09-14T19:21:47.499Z,4.53
2018-09-14T19:24:16.661Z,4.10
2018-09-14T19:26:45.633Z,4.00
2018-09-14T19:29:14.578Z,4.30
2018-09-14T19:31:43.459Z,4.60
2018-09-14T19:34:12.524Z,4.27
2018-09-14T19:36:41.455Z,4.20
2018-09-14T19:39:11.907Z,3.70
2018-09-14T19:41:40.850Z,4.00
2018-09-14T19:44:09.936Z,3.50
2018-09-14T19:46:38.833Z,4.33
2018-09-14T19:49:08.059Z,3.60
2018-09-14T19:51:37.524Z,4.03
2018-09-14T19:54:06.699Z,3.80
2018-09-14T19:56:36.011Z,3.67
2018-09-14T19:59:05.011Z,3.77
2018-09-14T20:01:34.398Z,3.07
2018-09-14T20:04:04.194Z,3.10
2018-09-14T20:06:34.564Z,3.00
2018-09-14T20:09:07.401Z,3.23
2018-09-14T20:11:36.455Z,3.77
2018-09-14T20:14:06.257Z,3.70
2018-09-14T20:16:36.292Z,3.53
2018-09-14T20:19:05.371Z,3.50
2018-09-14T20:21:34.551Z,3.47
2018-09-14T20:24:03.505Z,3.93
2018-09-14T20:26:32.740Z,3.83
2018-09-14T20:29:01.832Z,3.70
2018-09-14T20:31:31.851Z,2.93
2018-09-14T20:34:00.746Z,3.40
2018-09-14T20:36:29.630Z,4.33
2018-09-14T20:38:58.573Z,3.97
2018-09-14T20:41:27.474Z,3.60
2018-09-14T20:43:56.622Z,3.67
2018-09-14T20:46:25.515Z,3.30
2018-09-14T20:48:54.400Z,4.70
2018-09-14T20:51:23.291Z,3.53
2018-09-14T20:53:52.155Z,4.20
2018-09-14T20:56:21.070Z,4.17
2018-09-14T20:58:49.919Z,3.73
2018-09-14T21:01:19.091Z,4.03
2018-09-14T21:03:48.248Z,4.00
2018-09-14T21:06:17.263Z,4.20
2018-09-14T21:08:46.362Z,4.60
2018-09-14T21:11:15.318Z,3.60
2018-09-14T21:13:44.219Z,4.10
2018-09-14T21:16:13.113Z,4.40
2018-09-14T21:18:42.231Z,4.07
2018-09-14T21:21:11.567Z,4.53
2018-09-14T21:23:40.547Z,3.93
2018-09-14T21:26:09.527Z,5.03
2018-09-14T21:28:38.772Z,4.23
2018-09-14T21:31:07.687Z,5.00
2018-09-14T21:33:36.651Z,4.40
2018-09-14T21:36:05.585Z,4.50
2018-09-14T21:38:34.465Z,4.20
2018-09-14T21:41:03.503Z,4.63
2018-09-14T21:43:32.646Z,4.23
2018-09-14T21:46:01.499Z,5.30
2018-09-14T21:48:30.628Z,5.20
2018-09-14T21:50:59.791Z,4.83
2018-09-14T21:53:28.667Z,4.80
2018-09-14T21:55:57.562Z,4.83
2018-09-14T21:58:26.472Z,4.70
2018-09-14T22:01:33.015Z,5.33
2018-09-14T22:04:03.184Z,4.80
2018-09-14T22:06:32.150Z,5.57
2018-09-14T22:09:01.377Z,5.50
2018-09-14T22:11:30.298Z,5.20
2018-09-14T22:13:59.237Z,4.93
2018-09-14T22:16:28.365Z,5.10
2018-09-14T22:18:57.303Z,5.70
2018-09-14T22:21:26.540Z,5.30
2018-09-14T22:23:55.365Z,5.50
2018-09-14T22:26:24.466Z,4.80
2018-09-14T22:28:53.837Z,5.27
2018-09-14T22:31:22.814Z,5.30
2018-09-14T22:33:51.955Z,5.33
2018-09-14T22:36:21.134Z,5.10
2018-09-14T22:38:50.254Z,6.10
2018-09-14T22:41:19.394Z,5.80
2018-09-14T22:43:48.281Z,5.20
2018-09-14T22:46:17.652Z,5.40
2018-09-14T22:48:46.551Z,5.70
2018-09-14T22:51:15.430Z,5.60
2018-09-14T22:53:44.293Z,5.97
2018-09-14T22:56:13.268Z,5.37
2018-09-14T22:58:42.430Z,5.80
2018-09-14T23:01:17.540Z,5.20
2018-09-14T23:03:47.298Z,5.43
2018-09-14T23:06:16.170Z,5.40
2018-09-14T23:08:45.404Z,4.70
2018-09-14T23:11:14.499Z,5.37
2018-09-14T23:13:43.364Z,5.53
2018-09-14T23:16:12.207Z,5.93
2018-09-14T23:18:41.089Z,5.80
2018-09-14T23:21:10.494Z,6.00
2018-09-14T23:23:39.770Z,4.90
2018-09-14T23:26:15.512Z,5.10
2018-09-14T23:28:44.630Z,5.70
2018-09-14T23:31:13.478Z,4.90
2018-09-14T23:33:42.653Z,4.93
2018-09-14T23:36:11.603Z,5.00
2018-09-14T23:38:40.654Z,5.50
2018-09-14T23:41:09.890Z,4.90
2018-09-14T23:43:39.076Z,5.93
2018-09-14T23:46:07.950Z,5.40
2018-09-14T23:48:36.807Z,6.07
2018-09-14T23:51:05.695Z,5.53
2018-09-14T23:53:34.662Z,6.20
2018-09-14T23:56:03.818Z,6.10
2018-09-14T23:58:32.902Z,5.43
